createdAt,value
2017-06-12T00:00:53.383Z,78.14
2017-06-12T00:03:23.114Z,76.58
2017-06-12T00:05:52.822Z,75.13
2017-06-12T00:08:22.576Z,76.98
2017-06-12T00:10:52.296Z,77.09
2017-06-12T00:13:22.026Z,77.12
2017-06-12T00:15:51.829Z,77.64
2017-06-12T00:18:22.365Z,77.11
2017-06-12T00:20:52.094Z,76.00
2017-06-12T00:23:21.775Z,76.56
2017-06-12T00:25:51.456Z,77.12
2017-06-12T00:28:21.127Z,77.06
2017-06-12T00:30:50.802Z,76.10
2017-06-12T00:33:20.511Z,76.44
2017-06-12T00:35:50.193Z,76.04
2017-06-12T00:38:19.875Z,75.16
2017-06-12T00:40:49.591Z,74.43
2017-06-12T00:43:19.268Z,75.24
2017-06-12T00:45:48.987Z,75.45
2017-06-12T00:48:18.677Z,75.87
2017-06-12T00:50:48.397Z,76.58
2017-06-12T00:53:18.131Z,76.09
2017-06-12T00:55:47.819Z,76.07
2017-06-12T00:58:17.541Z,76.69
2017-06-12T01:00:47.209Z,77.00
2017-06-12T01:03:16.897Z,77.42
2017-06-12T01:05:46.581Z,76.77
2017-06-12T01:08:16.285Z,75.79
2017-06-12T01:10:46.065Z,76.44
2017-06-12T01:13:15.734Z,76.50
2017-06-12T01:15:45.414Z,76.15
2017-06-12T01:18:15.111Z,76.11
2017-06-12T01:20:44.801Z,76.31
2017-06-12T01:23:14.502Z,76.19
2017-06-12T01:25:44.230Z,76.14
2017-06-12T01:28:13.948Z,76.44
2017-06-12T01:30:43.600Z,75.95
2017-06-12T01:33:13.290Z,76.36
2017-06-12T01:35:43.010Z,75.61
2017-06-12T01:38:12.305Z,75.30
2017-06-12T01:40:42.089Z,76.04
2017-06-12T01:43:11.746Z,75.63
2017-06-12T01:45:41.076Z,75.79
2017-06-12T01:48:10.768Z,76.15
2017-06-12T01:50:40.438Z,76.73
2017-06-12T01:53:10.153Z,75.66
2017-06-12T01:55:40.831Z,75.21
2017-06-12T01:58:10.576Z,75.74
2017-06-12T02:00:40.258Z,74.87
2017-06-12T02:03:09.946Z,75.25
2017-06-12T02:05:39.643Z,75.84
2017-06-12T02:08:09.358Z,74.78
2017-06-12T02:10:39.097Z,74.41
2017-06-12T02:13:09.304Z,74.28
2017-06-12T02:15:39.001Z,74.07
2017-06-12T02:18:08.704Z,74.47
2017-06-12T02:20:38.489Z,74.26
2017-06-12T02:23:08.281Z,74.79
2017-06-12T02:25:39.053Z,76.37
2017-06-12T02:28:09.715Z,76.08
2017-06-12T02:30:39.405Z,75.08
2017-06-12T02:33:09.106Z,73.37
2017-06-12T02:35:38.793Z,75.03
2017-06-12T02:38:09.777Z,74.26
2017-06-12T02:40:41.795Z,73.81
2017-06-12T02:43:14.399Z,72.86
2017-06-12T02:45:46.091Z,72.41
2017-06-12T02:48:18.126Z,72.37
2017-06-12T02:50:48.958Z,72.35
2017-06-12T02:53:20.051Z,72.44
2017-06-12T02:55:51.143Z,72.42
2017-06-12T02:58:22.754Z,71.68
2017-06-12T03:00:54.097Z,71.12
2017-06-12T03:03:25.401Z,69.98
2017-06-12T03:05:57.076Z,69.83
2017-06-12T03:08:27.042Z,69.41
2017-06-12T03:10:56.693Z,69.23
2017-06-12T03:13:26.471Z,68.93
2017-06-12T03:15:56.139Z,68.62
2017-06-12T03:18:25.899Z,68.79
2017-06-12T03:20:55.582Z,68.56
2017-06-12T03:23:24.894Z,69.03
2017-06-12T03:25:54.587Z,68.12
2017-06-12T03:28:24.477Z,67.87
2017-06-12T03:30:55.054Z,67.66
2017-06-12T03:33:24.721Z,67.20
2017-06-12T03:35:54.392Z,66.90
2017-06-12T03:38:23.163Z,67.20
2017-06-12T03:40:52.847Z,67.29
2017-06-12T03:43:24.004Z,66.83
2017-06-12T03:45:53.673Z,66.92
2017-06-12T03:48:23.523Z,66.33
2017-06-12T03:50:54.625Z,66.30
2017-06-12T03:53:25.267Z,66.01
2017-06-12T03:55:55.663Z,65.53
2017-06-12T03:58:27.142Z,65.46
2017-06-12T04:00:58.121Z,65.44
2017-06-12T04:03:29.539Z,65.28
2017-06-12T04:05:59.794Z,65.48
2017-06-12T04:08:32.926Z,65.57
2017-06-12T04:11:03.174Z,65.64
2017-06-12T04:13:32.886Z,65.60
2017-06-12T04:16:05.006Z,65.86
2017-06-12T04:18:36.660Z,65.50
2017-06-12T04:21:07.414Z,66.16
2017-06-12T04:23:38.710Z,65.55
2017-06-12T04:26:09.811Z,65.71
2017-06-12T04:28:39.481Z,65.92
2017-06-12T04:31:09.466Z,65.82
2017-06-12T04:33:40.080Z,65.93
2017-06-12T04:36:10.394Z,66.30
2017-06-12T04:38:41.930Z,65.91
2017-06-12T04:41:11.579Z,65.96
2017-06-12T04:43:41.293Z,65.92
2017-06-12T04:46:10.958Z,66.29
2017-06-12T04:48:40.623Z,66.30
2017-06-12T04:51:10.683Z,66.42
2017-06-12T04:53:40.701Z,65.99
2017-06-12T04:56:10.430Z,66.34
2017-06-12T04:58:40.107Z,66.42
2017-06-12T05:01:09.831Z,66.30
2017-06-12T05:03:39.574Z,66.56
2017-06-12T05:06:09.270Z,66.82
2017-06-12T05:08:39.826Z,67.28
2017-06-12T05:11:09.760Z,67.23
2017-06-12T05:13:40.445Z,67.32
2017-06-12T05:16:10.195Z,67.85
2017-06-12T05:18:39.898Z,67.96
2017-06-12T05:21:09.609Z,67.48
2017-06-12T05:23:39.282Z,67.58
2017-06-12T05:26:09.315Z,67.79
2017-06-12T05:28:39.167Z,67.94
2017-06-12T05:31:09.488Z,68.21
2017-06-12T05:33:39.824Z,68.47
2017-06-12T05:36:09.774Z,68.48
2017-06-12T05:38:39.528Z,68.18
2017-06-12T05:41:09.621Z,68.31
2017-06-12T05:43:39.635Z,68.73
2017-06-12T05:46:09.480Z,68.78
2017-06-12T05:48:39.293Z,68.66
2017-06-12T05:51:09.123Z,68.57
2017-06-12T05:53:39.010Z,68.90
2017-06-12T05:56:08.824Z,68.89
2017-06-12T05:58:38.918Z,68.66
2017-06-12T06:01:08.805Z,69.07
2017-06-12T06:03:38.979Z,69.11
2017-06-12T06:06:08.648Z,68.92
2017-06-12T06:08:38.759Z,68.49
2017-06-12T06:11:09.015Z,68.51
2017-06-12T06:13:39.446Z,67.34
2017-06-12T06:16:09.561Z,67.03
2017-06-12T06:18:39.325Z,66.70
2017-06-12T06:21:09.297Z,66.78
2017-06-12T06:23:39.293Z,67.06
2017-06-12T06:26:09.012Z,66.93
2017-06-12T06:28:38.879Z,66.79
2017-06-12T06:31:08.915Z,66.55
2017-06-12T06:33:38.733Z,66.25
2017-06-12T06:36:08.600Z,65.77
2017-06-12T06:38:38.534Z,64.12
2017-06-12T06:41:08.791Z,63.42
2017-06-12T06:43:38.469Z,61.72
2017-06-12T06:46:08.236Z,61.99
2017-06-12T06:48:37.985Z,62.20
2017-06-12T06:51:07.918Z,61.91
2017-06-12T06:53:37.658Z,61.02
2017-06-12T06:56:07.744Z,59.73
2017-06-12T06:58:37.777Z,58.77
2017-06-12T07:01:08.402Z,57.42
2017-06-12T07:03:38.331Z,56.60
2017-06-12T07:06:08.355Z,56.40
2017-06-12T07:08:38.047Z,55.83
2017-06-12T07:11:08.858Z,54.94
2017-06-12T07:13:38.605Z,54.97
2017-06-12T07:16:08.338Z,53.21
2017-06-12T07:18:38.046Z,54.05
2017-06-12T07:21:07.728Z,52.14
2017-06-12T07:23:37.428Z,52.07
2017-06-12T07:26:07.145Z,51.46
2017-06-12T07:28:37.013Z,49.68
2017-06-12T07:31:06.734Z,47.66
2017-06-12T07:33:36.435Z,46.84
2017-06-12T07:36:06.093Z,46.68
2017-06-12T07:38:37.083Z,46.87
2017-06-12T07:41:08.066Z,46.80
2017-06-12T07:43:40.893Z,45.64
2017-06-12T07:46:12.662Z,44.91
2017-06-12T07:48:45.142Z,45.30
2017-06-12T07:51:17.122Z,44.37
2017-06-12T07:53:50.667Z,42.19
2017-06-12T07:56:22.787Z,42.21
2017-06-12T07:58:54.606Z,42.49
2017-06-12T08:01:25.895Z,42.82
2017-06-12T08:03:58.929Z,43.60
2017-06-12T08:06:31.025Z,44.65
2017-06-12T08:09:03.241Z,44.64
2017-06-12T08:11:34.688Z,43.90
2017-06-12T08:14:07.264Z,43.27
2017-06-12T08:16:40.281Z,42.97
2017-06-12T08:19:12.747Z,42.82
2017-06-12T08:21:44.994Z,42.68
2017-06-12T08:24:17.205Z,42.49
2017-06-12T08:26:48.745Z,41.54
2017-06-12T08:29:19.487Z,41.67
2017-06-12T08:31:50.179Z,41.19
2017-06-12T08:34:21.299Z,40.94
2017-06-12T08:36:51.661Z,40.91
2017-06-12T08:39:23.806Z,40.92
2017-06-12T08:41:54.379Z,40.29
2017-06-12T08:44:25.071Z,40.64
2017-06-12T08:46:56.423Z,40.29
2017-06-12T08:49:29.989Z,39.67
2017-06-12T08:52:00.014Z,38.85
2017-06-12T08:54:29.776Z,39.44
2017-06-12T08:56:59.449Z,39.65
2017-06-12T08:59:29.119Z,39.85
2017-06-12T09:01:58.814Z,39.29
2017-06-12T09:04:28.479Z,37.78
2017-06-12T09:06:58.224Z,37.11
2017-06-12T09:09:27.714Z,36.60
2017-06-12T09:11:57.499Z,37.11
2017-06-12T09:14:27.215Z,37.90
2017-06-12T09:16:56.976Z,36.90
2017-06-12T09:19:26.701Z,37.10
2017-06-12T09:21:56.376Z,36.63
2017-06-12T09:24:26.063Z,36.52
2017-06-12T09:26:55.791Z,37.14
2017-06-12T09:29:25.461Z,37.14
2017-06-12T09:31:55.184Z,37.25
2017-06-12T09:34:24.877Z,37.31
2017-06-12T09:36:54.567Z,37.74
2017-06-12T09:39:24.274Z,37.92
2017-06-12T09:41:53.958Z,37.58
2017-06-12T09:44:23.700Z,37.07
2017-06-12T09:46:53.405Z,37.42
2017-06-12T09:49:23.078Z,37.81
2017-06-12T09:51:52.783Z,37.98
2017-06-12T09:54:22.457Z,37.30
2017-06-12T09:56:52.171Z,36.48
2017-06-12T09:59:21.874Z,36.33
2017-06-12T10:01:51.552Z,35.96
2017-06-12T10:04:21.261Z,36.43
2017-06-12T10:06:50.940Z,36.70
2017-06-12T10:09:20.684Z,36.01
2017-06-12T10:11:50.369Z,35.61
2017-06-12T10:14:20.063Z,34.76
2017-06-12T10:16:50.598Z,34.13
2017-06-12T10:19:20.309Z,33.94
2017-06-12T10:21:50.030Z,34.31
2017-06-12T10:24:19.706Z,33.85
2017-06-12T10:26:49.386Z,33.92
2017-06-12T10:29:19.093Z,33.34
2017-06-12T10:31:48.799Z,32.94
2017-06-12T10:34:18.530Z,33.16
2017-06-12T10:36:48.222Z,33.69
2017-06-12T10:39:17.929Z,33.54
2017-06-12T10:41:48.151Z,33.01
2017-06-12T10:44:17.834Z,32.23
2017-06-12T10:46:47.555Z,32.33
2017-06-12T10:49:17.230Z,32.48
2017-06-12T10:51:46.911Z,33.12
2017-06-12T10:54:16.606Z,32.89
2017-06-12T10:56:46.293Z,32.76
2017-06-12T10:59:15.838Z,32.39
2017-06-12T11:01:45.557Z,31.98
2017-06-12T11:04:15.302Z,32.53
2017-06-12T11:06:44.639Z,32.97
2017-06-12T11:09:14.348Z,33.43
2017-06-12T11:11:44.099Z,32.67
2017-06-12T11:14:13.773Z,33.99
2017-06-12T11:16:43.438Z,33.67
2017-06-12T11:19:13.202Z,32.24
2017-06-12T11:21:47.606Z,33.10
2017-06-12T11:24:17.135Z,33.74
2017-06-12T11:26:46.812Z,33.04
2017-06-12T11:29:16.311Z,32.82
2017-06-12T11:31:45.830Z,32.25
2017-06-12T11:34:15.502Z,31.54
2017-06-12T11:36:45.234Z,32.18
2017-06-12T11:39:14.903Z,31.86
2017-06-12T11:41:44.606Z,31.79
2017-06-12T11:44:14.318Z,31.46
2017-06-12T11:46:43.990Z,31.44
2017-06-12T11:49:13.693Z,31.59
2017-06-12T11:51:43.371Z,31.57
2017-06-12T11:54:13.052Z,32.16
2017-06-12T11:56:42.753Z,31.56
2017-06-12T11:59:12.413Z,31.83
2017-06-12T12:01:42.122Z,31.48
2017-06-12T12:04:11.783Z,31.55
2017-06-12T12:06:41.438Z,32.46
2017-06-12T12:09:11.155Z,32.79
2017-06-12T12:11:40.827Z,33.24
2017-06-12T12:14:10.639Z,32.46
2017-06-12T12:16:40.301Z,32.28
2017-06-12T12:19:09.969Z,31.98
2017-06-12T12:21:39.738Z,31.70
2017-06-12T12:24:09.427Z,31.67
2017-06-12T12:26:39.159Z,32.02
2017-06-12T12:29:08.899Z,30.83
2017-06-12T12:31:38.568Z,30.91
2017-06-12T12:34:08.290Z,31.83
2017-06-12T12:36:37.965Z,31.47
2017-06-12T12:39:07.715Z,30.88
2017-06-12T12:41:37.404Z,30.74
2017-06-12T12:44:07.087Z,31.08
2017-06-12T12:46:36.807Z,32.26
2017-06-12T12:49:06.490Z,31.08
2017-06-12T12:51:36.210Z,31.12
2017-06-12T12:54:05.910Z,31.41
2017-06-12T12:56:36.210Z,31.34
2017-06-12T12:59:05.919Z,31.85
2017-06-12T13:01:35.606Z,32.01
2017-06-12T13:04:05.323Z,32.56
2017-06-12T13:06:35.051Z,32.03
2017-06-12T13:09:03.833Z,32.09
2017-06-12T13:11:33.527Z,32.67
2017-06-12T13:14:03.349Z,31.32
2017-06-12T13:16:33.078Z,30.19
2017-06-12T13:19:02.766Z,30.01
2017-06-12T13:21:32.486Z,29.86
2017-06-12T13:24:02.182Z,30.19
2017-06-12T13:26:31.854Z,30.85
2017-06-12T13:29:02.514Z,31.72
2017-06-12T13:31:32.192Z,31.95
2017-06-12T13:34:01.862Z,32.03
2017-06-12T13:36:31.558Z,32.84
2017-06-12T13:39:01.263Z,35.01
2017-06-12T13:41:31.056Z,36.30
2017-06-12T13:44:00.719Z,36.09
2017-06-12T13:46:30.417Z,35.96
2017-06-12T13:49:00.103Z,36.15
2017-06-12T13:51:29.781Z,36.30
2017-06-12T13:53:59.473Z,37.04
2017-06-12T13:56:29.122Z,36.69
2017-06-12T13:58:58.886Z,36.86
2017-06-12T14:01:28.625Z,34.27
2017-06-12T14:03:58.371Z,32.29
2017-06-12T14:06:28.086Z,32.05
2017-06-12T14:08:57.756Z,34.93
2017-06-12T14:11:27.506Z,36.63
2017-06-12T14:13:57.601Z,37.20
2017-06-12T14:16:27.313Z,36.84
2017-06-12T14:18:56.990Z,37.24
2017-06-12T14:21:26.672Z,37.28
2017-06-12T14:23:56.409Z,37.23
2017-06-12T14:26:26.069Z,37.79
2017-06-12T14:28:55.794Z,37.22
2017-06-12T14:31:25.463Z,37.59
2017-06-12T14:33:55.120Z,37.82
2017-06-12T14:36:24.829Z,37.24
2017-06-12T14:38:54.504Z,36.90
2017-06-12T14:41:24.235Z,37.00
2017-06-12T14:43:53.922Z,36.99
2017-06-12T14:46:23.643Z,35.13
2017-06-12T14:48:53.367Z,36.90
2017-06-12T14:51:23.034Z,37.36
2017-06-12T14:53:52.717Z,36.34
2017-06-12T14:56:22.377Z,36.14
2017-06-12T14:58:52.063Z,37.17
2017-06-12T15:01:21.743Z,36.94
2017-06-12T15:03:51.498Z,37.19
2017-06-12T15:06:21.163Z,36.11
2017-06-12T15:08:50.851Z,36.32
2017-06-12T15:11:20.581Z,37.11
2017-06-12T15:13:50.269Z,37.53
2017-06-12T15:16:19.971Z,37.77
2017-06-12T15:18:49.658Z,37.21
2017-06-12T15:21:19.401Z,36.35
2017-06-12T15:23:49.198Z,36.17
2017-06-12T15:26:18.893Z,36.29
2017-06-12T15:28:49.128Z,37.75
2017-06-12T15:31:18.804Z,38.94
2017-06-12T15:33:48.549Z,40.11
2017-06-12T15:36:18.342Z,40.65
2017-06-12T15:38:48.777Z,41.04
2017-06-12T15:41:18.470Z,41.30
2017-06-12T15:43:48.659Z,41.79
2017-06-12T15:46:20.270Z,42.11
2017-06-12T15:48:51.413Z,42.01
2017-06-12T15:51:21.971Z,42.01
2017-06-12T15:53:53.220Z,42.49
2017-06-12T15:56:25.543Z,42.38
2017-06-12T15:58:56.474Z,42.53
2017-06-12T16:01:28.199Z,41.66
2017-06-12T16:03:59.953Z,41.59
2017-06-12T16:06:34.134Z,41.40
2017-06-12T16:09:04.927Z,42.44
2017-06-12T16:11:36.961Z,42.57
2017-06-12T16:14:08.339Z,42.87
2017-06-12T16:16:40.768Z,42.73
2017-06-12T16:19:13.548Z,42.32
2017-06-12T16:21:46.163Z,42.23
2017-06-12T16:24:18.032Z,42.35
2017-06-12T16:26:49.983Z,42.32
2017-06-12T16:29:21.189Z,42.50
2017-06-12T16:31:52.646Z,42.10
2017-06-12T16:34:23.847Z,41.76
2017-06-12T16:36:54.792Z,41.69
2017-06-12T16:39:25.242Z,42.01
2017-06-12T16:41:55.914Z,42.38
2017-06-12T16:44:28.046Z,42.59
2017-06-12T16:46:59.143Z,43.46
2017-06-12T16:49:30.423Z,43.82
2017-06-12T16:52:02.598Z,43.51
2017-06-12T16:54:34.851Z,43.42
2017-06-12T16:57:06.614Z,43.06
2017-06-12T16:59:38.725Z,42.53
2017-06-12T17:02:10.257Z,42.13
2017-06-12T17:04:41.137Z,42.28
2017-06-12T17:07:12.978Z,42.14
2017-06-12T17:09:44.785Z,41.60
2017-06-12T17:12:17.328Z,42.62
2017-06-12T17:14:49.166Z,42.68
2017-06-12T17:17:21.248Z,42.40
2017-06-12T17:19:52.040Z,42.29
2017-06-12T17:22:23.591Z,41.64
2017-06-12T17:24:54.959Z,40.55
2017-06-12T17:27:24.963Z,40.43
2017-06-12T17:29:55.460Z,39.22
2017-06-12T17:32:25.637Z,37.75
2017-06-12T17:34:57.215Z,37.84
2017-06-12T17:37:28.699Z,37.80
2017-06-12T17:40:00.447Z,38.06
2017-06-12T17:42:33.088Z,37.72
2017-06-12T17:45:06.462Z,38.25
2017-06-12T17:47:39.998Z,38.35
2017-06-12T17:50:19.563Z,38.11
2017-06-12T17:52:51.374Z,37.98
2017-06-12T17:55:23.101Z,37.63
2017-06-12T17:57:54.197Z,37.75
2017-06-12T18:00:26.313Z,37.56
2017-06-12T18:02:59.266Z,37.93
2017-06-12T18:05:29.879Z,37.74
2017-06-12T18:08:01.492Z,37.80
2017-06-12T18:10:34.364Z,37.73
2017-06-12T18:13:06.651Z,38.03
2017-06-12T18:15:37.220Z,38.25
2017-06-12T18:18:08.835Z,38.17
2017-06-12T18:20:40.523Z,38.33
2017-06-12T18:23:11.632Z,38.11
2017-06-12T18:25:41.458Z,38.38
2017-06-12T18:28:11.197Z,38.44
2017-06-12T18:30:40.935Z,38.72
2017-06-12T18:33:10.982Z,38.82
2017-06-12T18:35:41.526Z,38.94
2017-06-12T18:38:11.749Z,39.21
2017-06-12T18:40:41.676Z,39.26
2017-06-12T18:43:11.594Z,39.44
2017-06-12T18:45:41.473Z,39.29
2017-06-12T18:48:18.032Z,39.37
2017-06-12T18:50:50.381Z,39.11
2017-06-12T18:53:26.940Z,39.46
2017-06-12T18:56:05.112Z,39.36
2017-06-12T18:58:41.945Z,40.08
2017-06-12T19:01:22.825Z,39.85
2017-06-12T19:04:05.704Z,40.24
2017-06-12T19:06:46.984Z,40.26
2017-06-12T19:09:25.998Z,40.27
2017-06-12T19:12:04.490Z,40.56
2017-06-12T19:14:42.892Z,41.14
2017-06-12T19:17:22.625Z,41.13
2017-06-12T19:20:00.802Z,41.18
2017-06-12T19:22:41.703Z,41.44
2017-06-12T19:25:21.837Z,40.99
2017-06-12T19:27:59.381Z,41.00
2017-06-12T19:30:37.220Z,41.10
2017-06-12T19:33:15.243Z,41.23
2017-06-12T19:35:54.731Z,41.22
2017-06-12T19:38:32.368Z,41.17
2017-06-12T19:41:09.970Z,41.86
2017-06-12T19:43:46.999Z,42.44
2017-06-12T19:46:26.907Z,42.87
2017-06-12T19:49:06.884Z,43.39
2017-06-12T19:51:48.394Z,43.83
2017-06-12T19:54:29.186Z,43.80
2017-06-12T19:57:08.229Z,44.42
2017-06-12T19:59:52.903Z,44.81
2017-06-12T20:02:28.520Z,45.00
2017-06-12T20:05:01.864Z,45.15
2017-06-12T20:07:33.154Z,45.10
2017-06-12T20:10:06.129Z,45.30
2017-06-12T20:12:39.356Z,45.48
2017-06-12T20:15:11.729Z,45.80
2017-06-12T20:17:43.037Z,45.97
2017-06-12T20:20:15.981Z,46.09
2017-06-12T20:22:47.625Z,46.35
2017-06-12T20:25:17.333Z,46.19
2017-06-12T20:27:47.121Z,46.85
2017-06-12T20:30:16.988Z,47.16
2017-06-12T20:32:46.490Z,47.18
2017-06-12T20:35:16.159Z,47.51
2017-06-12T20:37:45.858Z,47.74
2017-06-12T20:40:15.540Z,47.33
2017-06-12T20:42:45.284Z,47.78
2017-06-12T20:45:14.969Z,48.13
2017-06-12T20:47:44.682Z,49.20
2017-06-12T20:50:14.375Z,48.79
2017-06-12T20:52:44.086Z,48.87
2017-06-12T20:55:13.422Z,48.96
2017-06-12T20:57:43.126Z,49.09
2017-06-12T21:00:12.825Z,49.55
2017-06-12T21:02:42.496Z,49.06
2017-06-12T21:05:12.199Z,49.13
2017-06-12T21:07:41.917Z,49.76
2017-06-12T21:10:11.638Z,50.01
2017-06-12T21:12:41.344Z,50.14
2017-06-12T21:15:11.158Z,49.97
2017-06-12T21:17:40.829Z,50.36
2017-06-12T21:20:10.539Z,50.19
2017-06-12T21:22:40.206Z,50.42
2017-06-12T21:25:10.049Z,51.02
2017-06-12T21:27:39.738Z,50.65
2017-06-12T21:30:09.472Z,51.05
2017-06-12T21:32:39.210Z,51.06
2017-06-12T21:35:08.898Z,51.29
2017-06-12T21:37:38.792Z,52.03
2017-06-12T21:40:08.457Z,51.93
2017-06-12T21:42:38.311Z,51.86
2017-06-12T21:45:07.993Z,52.01
2017-06-12T21:47:37.705Z,52.13
2017-06-12T21:50:07.408Z,52.35
2017-06-12T21:52:37.091Z,52.78
2017-06-12T21:55:06.773Z,52.55
2017-06-12T21:57:36.453Z,52.94
2017-06-12T22:00:05.811Z,53.11
2017-06-12T22:02:35.637Z,53.37
2017-06-12T22:05:05.415Z,53.60
2017-06-12T22:07:35.917Z,53.69
2017-06-12T22:10:05.718Z,54.48
2017-06-12T22:12:35.656Z,54.06
2017-06-12T22:15:05.371Z,54.04
2017-06-12T22:17:35.155Z,54.04
2017-06-12T22:20:04.913Z,54.17
2017-06-12T22:22:34.282Z,54.53
2017-06-12T22:25:04.105Z,55.05
2017-06-12T22:27:33.805Z,54.89
2017-06-12T22:30:04.126Z,54.85
2017-06-12T22:32:33.877Z,54.93
2017-06-12T22:35:03.688Z,55.01
2017-06-12T22:37:33.426Z,54.94
2017-06-12T22:40:03.182Z,54.69
2017-06-12T22:42:32.922Z,54.95
2017-06-12T22:45:02.610Z,54.96
2017-06-12T22:47:32.349Z,54.62
2017-06-12T22:50:02.010Z,54.61
2017-06-12T22:52:31.674Z,54.89
2017-06-12T22:55:01.362Z,55.01
2017-06-12T22:57:31.037Z,55.06
2017-06-12T23:00:00.732Z,55.24
2017-06-12T23:02:30.476Z,54.62
2017-06-12T23:05:00.178Z,55.03
2017-06-12T23:07:30.792Z,55.11
2017-06-12T23:10:00.598Z,55.96
2017-06-12T23:12:30.316Z,55.61
2017-06-12T23:15:00.040Z,56.01
2017-06-12T23:17:29.725Z,55.88
2017-06-12T23:19:59.417Z,55.97
2017-06-12T23:22:28.944Z,56.10
2017-06-12T23:24:58.630Z,55.69
2017-06-12T23:27:48.940Z,55.87
2017-06-12T23:30:32.725Z,55.46
2017-06-12T23:33:02.467Z,55.80
2017-06-12T23:35:32.160Z,55.96
2017-06-12T23:38:01.866Z,56.51
2017-06-12T23:40:31.558Z,56.71
2017-06-12T23:43:01.259Z,56.98
2017-06-12T23:45:30.949Z,56.41
2017-06-12T23:48:00.675Z,56.68
2017-06-12T23:50:30.372Z,56.69
2017-06-12T23:53:00.103Z,56.58
2017-06-12T23:55:29.781Z,56.74
2017-06-12T23:57:59.497Z,56.99
